Terminal Aerodrome Forecast
Issued by NWS Charleston, WV

Current Version | Previous Version | Text Only | Print | Product List | Glossary Off
Versions: 1 2 3 4 5 6 7 8 9 10 11 12 13 14 15 16 17 18 19 20

000
FTUS41 KRLX 232300
TAFPKB
TAF
KPKB 232337Z 2400/2424 00000KT P6SM OVC060
     FM240200 00000KT P6SM SHRA OVC035
     FM240500 VRB03KT 3SM SHRA BR OVC025
     FM241200 VRB03KT 6SM -SHRA BR OVC025
     FM241400 15005KT P6SM BKN035
     FM242000 17009G18KT 3SM SHRA BR VCTS BKN035CB
     FM242300 20009KT P6SM SHRA OVC035=

USA.gov is the U.S. government's official web portal to all federal, state and local government web resources and services.